createdAt,value
2023-04-10T00:00:11.871Z,9.91
2023-04-10T00:02:39.126Z,9.21
2023-04-10T00:05:07.693Z,9.85
2023-04-10T00:07:34.990Z,9.63
2023-04-10T00:10:02.289Z,9.80
2023-04-10T00:12:30.000Z,9.40
2023-04-10T00:15:00.210Z,9.77
2023-04-10T00:17:27.616Z,8.89
2023-04-10T00:19:54.740Z,9.56
2023-04-10T00:22:21.933Z,9.74
2023-04-10T00:24:49.041Z,9.61
2023-04-10T00:27:16.234Z,9.36
2023-04-10T00:29:43.445Z,9.59
2023-04-10T00:32:10.766Z,9.40
2023-04-10T00:34:37.917Z,9.30
2023-04-10T00:37:05.031Z,8.93
2023-04-10T00:39:32.135Z,9.56
2023-04-10T00:41:59.873Z,9.53
2023-04-10T00:44:29.760Z,9.47
2023-04-10T00:46:57.246Z,9.26
2023-04-10T00:49:24.898Z,9.13
2023-04-10T00:51:57.918Z,9.43
2023-04-10T00:54:26.229Z,9.04
2023-04-10T00:56:57.513Z,9.38
2023-04-10T00:59:24.617Z,9.35
2023-04-10T01:01:53.636Z,8.64
2023-04-10T01:04:22.414Z,9.23
2023-04-10T01:07:36.822Z,9.10
2023-04-10T01:10:18.582Z,9.32
2023-04-10T01:13:27.171Z,9.07
2023-04-10T01:16:03.283Z,8.94
2023-04-10T01:18:44.118Z,8.63
2023-04-10T01:21:12.634Z,9.22
2023-04-10T01:24:14.063Z,9.21
2023-04-10T01:27:11.490Z,9.19
2023-04-10T01:29:46.938Z,8.94
2023-04-10T01:32:20.747Z,8.89
2023-04-10T01:34:54.925Z,9.14
2023-04-10T01:37:33.691Z,8.39
2023-04-10T01:40:07.304Z,8.86
2023-04-10T01:42:45.740Z,8.41
2023-04-10T01:45:28.844Z,8.86
2023-04-10T01:48:02.853Z,8.65
2023-04-10T01:50:31.216Z,8.66
2023-04-10T01:52:58.886Z,8.78
2023-04-10T01:55:27.341Z,8.93
2023-04-10T01:57:56.611Z,8.57
2023-04-10T02:00:23.832Z,8.72
2023-04-10T02:02:54.931Z,8.70
2023-04-10T02:05:23.667Z,8.77
2023-04-10T02:08:18.837Z,8.85
2023-04-10T02:11:04.137Z,8.59
2023-04-10T02:13:32.264Z,8.32
2023-04-10T02:16:02.745Z,8.76
2023-04-10T02:18:31.799Z,8.60
2023-04-10T02:20:58.867Z,8.34
2023-04-10T02:23:26.086Z,8.65
2023-04-10T02:25:59.085Z,8.13
2023-04-10T02:28:26.924Z,8.28
2023-04-10T02:30:54.178Z,8.49
2023-04-10T02:33:24.065Z,7.37
2023-04-10T02:35:52.408Z,8.10
2023-04-10T02:38:19.545Z,8.41
2023-04-10T02:40:47.294Z,8.16
2023-04-10T02:43:14.463Z,8.09
2023-04-10T02:45:42.044Z,7.71
2023-04-10T02:48:11.157Z,8.12
2023-04-10T02:50:38.256Z,8.43
2023-04-10T02:53:05.599Z,7.88
2023-04-10T02:55:32.702Z,8.09
2023-04-10T02:57:59.884Z,7.85
2023-04-10T03:00:28.039Z,8.10
2023-04-10T03:02:55.803Z,8.15
2023-04-10T03:05:29.234Z,7.66
2023-04-10T03:07:56.948Z,8.17
2023-04-10T03:10:24.780Z,8.25
2023-04-10T03:12:54.137Z,7.79
2023-04-10T03:15:23.733Z,7.54
2023-04-10T03:17:50.894Z,7.83
2023-04-10T03:20:18.201Z,8.10
2023-04-10T03:22:45.325Z,6.38
2023-04-10T03:25:12.509Z,8.05
2023-04-10T03:27:39.791Z,8.27
2023-04-10T03:30:08.107Z,7.94
2023-04-10T03:32:35.219Z,7.90
2023-04-10T03:35:02.350Z,7.73
2023-04-10T03:37:29.469Z,7.62
2023-04-10T03:39:59.506Z,7.87
2023-04-10T03:42:29.226Z,8.05
2023-04-10T03:44:59.106Z,8.16
2023-04-10T05:04:55.510Z,7.86
2023-04-10T05:07:22.872Z,7.76
2023-04-10T05:09:50.158Z,7.72
2023-04-10T05:12:17.228Z,7.82
2023-04-10T05:14:45.126Z,7.80
2023-04-10T05:17:12.304Z,7.73
2023-04-10T05:19:39.374Z,7.73
2023-04-10T05:22:06.475Z,7.81
2023-04-10T05:24:33.848Z,7.65
2023-04-10T05:27:00.976Z,7.94
2023-04-10T05:29:28.072Z,7.76
2023-04-10T05:31:55.169Z,7.37
2023-04-10T05:34:22.640Z,7.80
2023-04-10T05:36:49.770Z,7.84
2023-04-10T05:39:17.466Z,7.84
2023-04-10T05:41:44.576Z,7.82
2023-04-10T05:44:11.645Z,7.87
2023-04-10T05:46:38.846Z,8.01
2023-04-10T05:49:05.916Z,8.19
2023-04-10T05:51:32.971Z,7.97
2023-04-10T05:54:00.062Z,8.22
2023-04-10T05:56:27.170Z,7.93
2023-04-10T05:58:55.043Z,8.22
2023-04-10T06:01:22.698Z,8.45
2023-04-10T06:03:50.084Z,8.43
2023-04-10T06:06:17.911Z,8.19
2023-04-10T06:08:45.031Z,8.57
2023-04-10T06:11:12.193Z,8.44
2023-04-10T06:13:39.343Z,8.48
2023-04-10T06:16:07.452Z,8.76
2023-04-10T06:18:34.656Z,8.74
2023-04-10T06:21:04.821Z,8.65
2023-04-10T06:23:32.152Z,8.76
2023-04-10T06:25:59.320Z,8.71
2023-04-10T06:28:26.488Z,8.97
2023-04-10T06:30:55.156Z,9.20
2023-04-10T06:33:25.493Z,9.12
2023-04-10T06:35:53.762Z,9.26
2023-04-10T06:38:20.940Z,9.42
2023-04-10T06:40:48.146Z,9.13
2023-04-10T06:43:15.445Z,9.58
2023-04-10T06:45:42.730Z,9.43
2023-04-10T06:48:09.863Z,9.82
2023-04-10T06:50:36.907Z,9.89
2023-04-10T06:53:04.015Z,9.83
2023-04-10T06:55:31.332Z,10.25
2023-04-10T06:57:58.483Z,10.40
2023-04-10T07:00:25.803Z,10.45
2023-04-10T07:02:53.013Z,10.27
2023-04-10T07:05:24.122Z,10.69
2023-04-10T07:07:51.222Z,10.24
2023-04-10T07:10:18.333Z,10.69
2023-04-10T07:12:45.758Z,11.19
2023-04-10T07:15:12.988Z,11.09
2023-04-10T07:17:40.148Z,9.81
2023-04-10T07:20:08.077Z,11.17
2023-04-10T07:22:35.194Z,10.92
2023-04-10T07:25:02.504Z,11.37
2023-04-10T07:27:29.668Z,11.55
2023-04-10T07:29:57.317Z,11.53
2023-04-10T07:32:25.048Z,11.34
2023-04-10T07:34:54.668Z,10.36
2023-04-10T07:37:22.607Z,11.88
2023-04-10T07:39:49.754Z,11.75
2023-04-10T07:42:16.967Z,11.72
2023-04-10T07:44:44.102Z,10.72
2023-04-10T07:47:11.627Z,11.93
2023-04-10T07:49:38.777Z,11.32
2023-04-10T07:52:05.938Z,11.73
2023-04-10T07:54:34.409Z,11.83
2023-04-10T07:57:01.709Z,12.16
2023-04-10T07:59:29.216Z,12.04
2023-04-10T08:01:56.568Z,11.11
2023-04-10T08:04:27.495Z,12.62
2023-04-10T08:06:55.004Z,12.78
2023-04-10T08:09:22.788Z,13.05
2023-04-10T08:11:49.986Z,12.92
2023-04-10T08:14:18.117Z,13.18
2023-04-10T08:16:45.851Z,13.22
2023-04-10T08:19:13.065Z,13.29
2023-04-10T08:21:40.182Z,13.48
2023-04-10T08:24:07.281Z,13.09
2023-04-10T08:26:34.510Z,13.07
2023-04-10T08:29:01.720Z,13.30
2023-04-10T08:31:29.553Z,13.41
2023-04-10T08:33:57.533Z,13.33
2023-04-10T08:36:25.195Z,13.33
2023-04-10T08:38:52.746Z,13.28
2023-04-10T08:41:20.994Z,13.11
2023-04-10T08:43:49.835Z,13.20
2023-04-10T08:46:17.447Z,13.36
2023-04-10T08:49:05.381Z,12.94
2023-04-10T08:51:56.423Z,13.60
2023-04-10T08:54:29.773Z,13.14
2023-04-10T08:56:58.791Z,13.53
2023-04-10T08:59:26.098Z,13.41
2023-04-10T09:01:54.131Z,13.78
2023-04-10T09:04:21.806Z,13.79
2023-04-10T09:06:49.352Z,13.54
2023-04-10T09:09:16.606Z,13.67
2023-04-10T09:11:52.954Z,14.01
2023-04-10T09:14:29.493Z,13.43
2023-04-10T09:17:14.477Z,13.99
2023-04-10T09:19:42.589Z,13.47
2023-04-10T09:22:10.917Z,13.46
2023-04-10T09:24:41.048Z,13.36
2023-04-10T09:27:08.694Z,13.99
2023-04-10T09:29:50.232Z,13.96
2023-04-10T09:32:41.463Z,13.88
2023-04-10T09:35:13.434Z,13.48
2023-04-10T09:37:42.652Z,13.39
2023-04-10T09:40:30.263Z,13.41
2023-04-10T09:42:57.491Z,13.02
2023-04-10T09:45:25.081Z,13.51
2023-04-10T09:48:06.826Z,13.25
2023-04-10T09:50:41.070Z,14.03
2023-04-10T09:53:20.133Z,14.05
2023-04-10T09:55:48.933Z,12.59
2023-04-10T09:58:17.176Z,13.82
2023-04-10T10:00:46.772Z,13.47
2023-04-10T10:03:19.452Z,14.03
2023-04-10T10:05:50.486Z,14.00
2023-04-10T10:08:18.077Z,13.68
2023-04-10T10:10:52.176Z,13.73
2023-04-10T10:13:49.057Z,13.67
2023-04-10T10:16:21.175Z,14.07
2023-04-10T10:18:59.426Z,14.01
2023-04-10T10:21:28.266Z,14.15
2023-04-10T10:23:59.175Z,14.02
2023-04-10T10:26:26.467Z,13.95
2023-04-10T10:28:54.956Z,13.72
2023-04-10T10:31:26.365Z,14.37
2023-04-10T10:33:54.836Z,14.42
2023-04-10T10:36:23.236Z,14.41
2023-04-10T10:40:02.070Z,14.55
2023-04-10T10:43:01.923Z,14.55
2023-04-10T10:45:47.375Z,14.73
2023-04-10T10:48:14.588Z,14.18
2023-04-10T10:50:57.562Z,14.26
2023-04-10T10:53:44.739Z,14.57
2023-04-10T10:56:21.097Z,14.85
2023-04-10T10:58:58.870Z,14.70
2023-04-10T11:01:26.564Z,14.86
2023-04-10T11:03:57.427Z,14.86
2023-04-10T11:06:54.633Z,14.57
2023-04-10T11:09:54.675Z,14.82
2023-04-10T11:12:26.095Z,14.88
2023-04-10T11:15:05.058Z,14.93
2023-04-10T11:17:51.951Z,14.93
2023-04-10T11:20:27.577Z,15.28
2023-04-10T11:23:12.585Z,15.39
2023-04-10T11:25:56.696Z,15.56
2023-04-10T11:28:35.770Z,15.68
2023-04-10T11:31:24.425Z,15.28
2023-04-10T11:34:12.253Z,15.85
2023-04-10T11:36:41.709Z,15.20
2023-04-10T11:39:14.424Z,15.84
2023-04-10T11:41:44.013Z,15.89
2023-04-10T11:44:14.664Z,15.20
2023-04-10T11:46:47.513Z,16.31
2023-04-10T11:49:24.313Z,15.64
2023-04-10T11:51:52.866Z,15.39
2023-04-10T11:54:23.705Z,16.14
2023-04-10T11:57:05.861Z,15.60
2023-04-10T11:59:34.200Z,16.02
2023-04-10T12:02:16.772Z,15.78
2023-04-10T12:04:45.055Z,15.69
2023-04-10T12:07:12.664Z,15.80
2023-04-10T12:10:00.039Z,14.27
2023-04-10T12:12:37.466Z,14.80
2023-04-10T12:15:30.312Z,15.47
2023-04-10T12:17:57.675Z,15.40
2023-04-10T12:20:27.952Z,16.10
2023-04-10T12:22:57.132Z,16.15
2023-04-10T12:25:24.957Z,15.73
2023-04-10T12:27:52.180Z,16.24
2023-04-10T12:30:19.558Z,15.07
2023-04-10T12:32:54.852Z,16.15
2023-04-10T12:35:42.759Z,15.64
2023-04-10T12:38:10.027Z,16.18
2023-04-10T12:40:38.661Z,16.18
2023-04-10T12:43:05.773Z,15.87
2023-04-10T12:45:45.574Z,14.72
2023-04-10T12:48:12.733Z,15.43
2023-04-10T12:50:49.824Z,16.30
2023-04-10T12:53:16.969Z,15.88
2023-04-10T12:56:01.654Z,16.39
2023-04-10T12:58:31.259Z,15.70
2023-04-10T13:01:09.727Z,15.99
2023-04-10T13:03:38.194Z,16.02
2023-04-10T13:06:08.962Z,16.11
2023-04-10T13:08:37.040Z,15.24
2023-04-10T13:11:04.373Z,15.07
2023-04-10T13:13:33.018Z,16.11
2023-04-10T13:16:04.225Z,15.39
2023-04-10T13:18:31.406Z,16.08
2023-04-10T13:20:58.587Z,15.78
2023-04-10T13:23:25.911Z,15.79
2023-04-10T13:25:55.629Z,15.08
2023-04-10T13:28:23.284Z,15.54
2023-04-10T13:30:50.606Z,15.12
2023-04-10T13:33:17.714Z,14.53
2023-04-10T13:35:44.984Z,14.56
2023-04-10T13:38:12.341Z,15.19
2023-04-10T13:40:39.606Z,14.29
2023-04-10T13:43:09.077Z,15.80
2023-04-10T13:45:36.330Z,15.12
2023-04-10T13:48:04.226Z,15.17
2023-04-10T13:50:31.553Z,15.37
2023-04-10T13:52:58.657Z,15.29
2023-04-10T13:55:25.872Z,14.92
2023-04-10T13:57:55.982Z,15.49
2023-04-10T14:00:24.052Z,15.45
2023-04-10T14:05:32.629Z,13.22
2023-04-10T14:07:59.798Z,15.46
2023-04-10T14:10:27.292Z,14.52
2023-04-10T14:12:54.892Z,15.42
2023-04-10T14:15:22.737Z,15.24
2023-04-10T14:17:49.936Z,15.68
2023-04-10T14:20:22.140Z,13.43
2023-04-10T14:22:49.869Z,14.80
2023-04-10T14:25:17.145Z,14.65
2023-04-10T14:27:44.291Z,14.50
2023-04-10T14:30:11.954Z,14.48
2023-04-10T14:32:39.832Z,14.62
2023-04-10T14:35:11.832Z,14.52
2023-04-10T14:37:39.587Z,13.50
2023-04-10T14:40:07.987Z,13.87
2023-04-10T14:42:35.162Z,14.14
2023-04-10T14:45:02.395Z,14.27
2023-04-10T14:47:29.775Z,12.73
2023-04-10T14:49:59.319Z,13.05
2023-04-10T14:52:29.007Z,13.78
2023-04-10T14:54:58.945Z,13.28
2023-04-10T14:57:34.807Z,13.47
2023-04-10T15:00:07.559Z,14.47
2023-04-10T15:02:34.720Z,14.38
2023-04-10T15:05:02.096Z,14.33
2023-04-10T15:07:29.244Z,13.01
2023-04-10T15:09:59.775Z,12.43
2023-04-10T15:12:26.944Z,14.01
2023-04-10T15:14:54.908Z,13.71
2023-04-10T15:17:23.325Z,13.94
2023-04-10T15:19:50.666Z,13.74
2023-04-10T15:22:17.842Z,13.33
2023-04-10T15:24:50.615Z,13.67
2023-04-10T15:27:21.415Z,12.01
2023-04-10T15:29:49.136Z,12.48
2023-04-10T15:32:16.428Z,13.47
2023-04-10T15:34:47.159Z,12.38
2023-04-10T15:37:26.022Z,11.39
2023-04-10T15:39:53.430Z,13.28
2023-04-10T15:42:20.570Z,13.21
2023-04-10T15:44:49.140Z,13.16
2023-04-10T15:47:16.454Z,12.94
2023-04-10T15:49:43.535Z,12.92
2023-04-10T15:52:10.671Z,12.67
2023-04-10T15:54:39.848Z,12.80
2023-04-10T15:57:07.088Z,12.56
2023-04-10T15:59:34.716Z,12.75
2023-04-10T16:02:02.054Z,12.66
2023-04-10T16:04:30.846Z,12.75
2023-04-10T16:06:58.056Z,12.38
2023-04-10T16:09:26.879Z,12.66
2023-04-10T16:11:55.260Z,12.60
2023-04-10T16:14:23.378Z,12.40
2023-04-10T16:16:51.489Z,12.50
2023-04-10T16:19:18.777Z,12.45
2023-04-10T16:21:46.042Z,12.21
2023-04-10T16:24:13.294Z,11.95
2023-04-10T16:26:40.403Z,12.28
2023-04-10T16:29:07.812Z,12.03
2023-04-10T16:31:35.075Z,11.98
2023-04-10T16:34:02.372Z,11.92
2023-04-10T16:36:29.533Z,11.83
2023-04-10T16:38:56.943Z,11.99
2023-04-10T16:41:28.279Z,12.40
2023-04-10T16:43:55.704Z,12.39
2023-04-10T16:46:22.976Z,12.37
2023-04-10T16:48:51.414Z,12.05
2023-04-10T16:51:19.056Z,12.28
2023-04-10T16:53:46.251Z,11.54
2023-04-10T16:56:13.537Z,12.36
2023-04-10T16:58:42.204Z,12.32
2023-04-10T17:01:26.554Z,11.88
2023-04-10T17:03:55.451Z,12.27
2023-04-10T17:06:22.910Z,12.27
2023-04-10T17:08:50.090Z,12.20
2023-04-10T17:11:17.330Z,11.93
2023-04-10T17:13:45.804Z,12.27
2023-04-10T17:16:13.063Z,11.30
2023-04-10T17:18:40.772Z,11.64
2023-04-10T17:21:12.573Z,12.05
2023-04-10T17:23:40.851Z,11.56
2023-04-10T17:26:14.041Z,11.82
2023-04-10T17:28:46.706Z,12.09
2023-04-10T17:31:14.279Z,12.05
2023-04-10T17:33:42.090Z,11.22
2023-04-10T17:36:12.932Z,11.79
2023-04-10T17:38:41.501Z,11.73
2023-04-10T17:41:09.839Z,11.56
2023-04-10T17:43:37.046Z,11.77
2023-04-10T17:46:04.198Z,11.54
2023-04-10T17:48:31.405Z,11.60
2023-04-10T17:50:58.692Z,11.61
2023-04-10T17:53:25.906Z,11.76
2023-04-10T17:55:53.166Z,11.73
2023-04-10T17:58:20.580Z,11.58
2023-04-10T18:00:47.847Z,11.43
2023-04-10T18:03:15.069Z,11.58
2023-04-10T18:05:42.216Z,11.55
2023-04-10T18:08:09.337Z,11.51
2023-04-10T18:10:36.542Z,11.22
2023-04-10T18:13:03.728Z,11.20
2023-04-10T18:15:30.878Z,11.36
2023-04-10T18:17:58.242Z,11.27
2023-04-10T18:20:25.451Z,11.49
2023-04-10T18:22:52.903Z,11.49
2023-04-10T18:25:20.050Z,11.36
2023-04-10T18:28:09.792Z,11.33
2023-04-10T18:30:39.200Z,11.39
2023-04-10T18:33:10.177Z,11.38
2023-04-10T18:35:38.322Z,11.33
2023-04-10T18:38:05.434Z,11.35
2023-04-10T18:40:34.707Z,11.40
2023-04-10T18:43:01.891Z,11.36
2023-04-10T18:45:29.280Z,11.53
2023-04-10T18:47:56.491Z,11.37
2023-04-10T18:50:24.533Z,11.39
2023-04-10T18:52:51.679Z,11.47
2023-04-10T18:55:18.938Z,11.60
2023-04-10T18:57:46.098Z,11.35
2023-04-10T19:00:13.982Z,11.63
2023-04-10T19:02:41.342Z,11.43
2023-04-10T19:05:09.543Z,11.64
2023-04-10T19:07:36.590Z,11.47
2023-04-10T19:10:03.769Z,11.20
2023-04-10T19:12:30.871Z,11.27
2023-04-10T19:14:57.956Z,11.64
2023-04-10T19:17:25.576Z,11.22
2023-04-10T19:19:54.098Z,11.33
2023-04-10T19:22:21.426Z,11.49
2023-04-10T19:24:48.494Z,11.53
2023-04-10T19:27:15.740Z,11.29
2023-04-10T19:29:42.887Z,11.05
2023-04-10T19:32:11.204Z,11.66
2023-04-10T19:34:38.294Z,10.96
2023-04-10T19:37:05.436Z,11.40
2023-04-10T19:39:32.504Z,11.31
2023-04-10T19:41:59.633Z,11.09
2023-04-10T19:44:26.717Z,11.32
2023-04-10T19:46:56.524Z,11.62
2023-04-10T19:49:25.854Z,11.52
2023-04-10T19:51:55.314Z,11.64
2023-04-10T19:54:22.593Z,11.45
2023-04-10T19:56:49.734Z,11.47
2023-04-10T19:59:17.443Z,11.44
2023-04-10T20:01:44.598Z,11.50
2023-04-10T20:04:11.861Z,11.29
2023-04-10T20:06:39.019Z,11.39
2023-04-10T20:09:06.136Z,11.40
2023-04-10T20:11:33.247Z,11.47
2023-04-10T20:14:00.338Z,11.39
2023-04-10T20:16:27.566Z,11.12
2023-04-10T20:18:55.652Z,11.20
2023-04-10T20:21:23.248Z,11.21
2023-04-10T20:23:50.574Z,11.23
2023-04-10T20:26:18.166Z,11.13
2023-04-10T20:28:45.400Z,11.16
2023-04-10T20:31:12.667Z,11.42
2023-04-10T20:33:39.819Z,11.21
2023-04-10T20:36:07.984Z,11.21
2023-04-10T20:38:35.132Z,11.30
2023-04-10T20:41:02.319Z,11.14
2023-04-10T20:43:29.436Z,11.21
2023-04-10T20:45:56.551Z,11.24
2023-04-10T20:48:26.188Z,11.02
2023-04-10T20:50:53.775Z,11.41
2023-04-10T20:53:21.047Z,11.31
2023-04-10T20:55:54.274Z,10.76
2023-04-10T20:58:22.011Z,11.41
2023-04-10T21:00:56.133Z,11.27
2023-04-10T21:03:24.024Z,11.18
2023-04-10T21:05:53.461Z,10.81
2023-04-10T21:08:21.125Z,11.08
2023-04-10T21:10:48.253Z,10.94
2023-04-10T21:13:15.844Z,11.19
2023-04-10T21:15:43.510Z,11.16
2023-04-10T21:18:10.792Z,10.80
2023-04-10T21:20:37.948Z,11.31
2023-04-10T21:23:05.077Z,11.10
2023-04-10T21:25:33.808Z,11.06
2023-04-10T21:28:01.861Z,11.20
2023-04-10T21:30:29.485Z,11.11
2023-04-10T21:32:59.941Z,10.98
2023-04-10T21:35:27.462Z,10.96
2023-04-10T21:37:58.346Z,11.19
2023-04-10T21:40:30.146Z,11.24
2023-04-10T21:42:57.310Z,10.84
2023-04-10T21:45:27.303Z,11.04
2023-04-10T21:47:55.092Z,11.02
2023-04-10T21:50:25.203Z,11.03
2023-04-10T21:52:54.570Z,10.92
2023-04-10T21:55:21.726Z,10.91
2023-04-10T21:57:48.902Z,11.16
2023-04-10T22:00:17.211Z,10.86
2023-04-10T22:02:44.895Z,10.90
2023-04-10T22:05:14.145Z,11.06
2023-04-10T22:07:41.257Z,10.93
2023-04-10T22:10:09.128Z,11.08
2023-04-10T22:12:36.325Z,11.08
2023-04-10T22:15:04.279Z,10.99
2023-04-10T22:17:31.412Z,11.15
2023-04-10T22:19:58.517Z,11.14
2023-04-10T22:22:25.617Z,11.03
2023-04-10T22:24:53.023Z,10.85
2023-04-10T22:27:20.110Z,10.51
2023-04-10T22:29:56.278Z,10.05
2023-04-10T22:32:29.806Z,9.48
2023-04-10T22:34:58.954Z,9.22
2023-04-10T22:37:27.006Z,8.91
2023-04-10T22:39:56.637Z,8.43
2023-04-10T22:42:24.900Z,8.41
2023-04-10T22:44:52.024Z,7.96
2023-04-10T22:47:19.142Z,7.99
2023-04-10T22:49:46.344Z,7.86
2023-04-10T22:52:14.090Z,7.66
2023-04-10T22:54:41.228Z,7.83
2023-04-10T22:57:08.524Z,7.95
2023-04-10T22:59:37.382Z,8.19
2023-04-10T23:02:04.844Z,8.26
2023-04-10T23:04:32.246Z,8.24
2023-04-10T23:06:59.632Z,8.05
2023-04-10T23:09:26.757Z,8.31
2023-04-10T23:11:54.768Z,8.41
2023-04-10T23:14:21.833Z,8.07
2023-04-10T23:16:49.726Z,8.36
2023-04-10T23:19:18.730Z,8.32
2023-04-10T23:21:45.986Z,8.56
2023-04-10T23:24:13.165Z,8.62
2023-04-10T23:26:40.438Z,8.20
2023-04-10T23:29:07.524Z,8.43
2023-04-10T23:31:34.673Z,8.73
2023-04-10T23:34:01.811Z,8.37
2023-04-10T23:36:28.893Z,8.66
2023-04-10T23:38:56.113Z,8.77
2023-04-10T23:41:24.040Z,8.41
2023-04-10T23:43:51.905Z,8.54
2023-04-10T23:46:19.139Z,8.45
2023-04-10T23:48:46.315Z,8.84
2023-04-10T23:51:13.418Z,8.81
2023-04-10T23:53:40.641Z,8.57
2023-04-10T23:56:08.132Z,8.32
2023-04-10T23:58:35.404Z,8.44
